Time;durP1;ratioP1;P1;durP2;ratioP2;P2;SDS_P1;SDS_P2;PMS_P1;PMS_P2;Temp;Humidity;BMP_temperature;BMP_pressure;BME280_temperature;BME280_humidity;BME280_pressure;Samples;Min_cycle;Max_cycle;Signal;HPM_P1;HPM_P2
2021/12/26 00:01:47;;;;;;;;;2.00;2.00;;;;;-2.28;100.00;99040.34;6313247;20;3460733;-46
2021/12/26 00:04:16;;;;;;;;;0.67;0.67;;;;;-2.45;100.00;99044.19;6314799;20;2728534;-44
2021/12/26 00:06:45;;;;;;;;;6.33;4.33;;;;;-2.46;100.00;99039.81;6310050;20;3452354;-44
2021/12/26 00:09:13;;;;;;;;;4.67;2.67;;;;;-2.33;100.00;99045.69;6313215;20;3472152;-44
2021/12/26 00:11:41;;;;;;;;;5.00;4.00;;;;;-2.32;100.00;99052.66;6326800;20;1824365;-45
2021/12/26 00:14:09;;;;;;;;;8.00;4.00;;;;;-2.30;100.00;99053.50;6311176;20;3471263;-44
2021/12/26 00:16:38;;;;;;;;;4.67;4.00;;;;;-2.26;99.89;99056.97;6279192;20;3470038;-44
2021/12/26 00:19:06;;;;;;;;;3.00;3.00;;;;;-2.20;99.81;99059.47;6308538;20;3472139;-44
2021/12/26 00:21:33;;;;;;;;;5.00;5.00;;;;;-2.19;99.80;99048.03;6279440;20;3457532;-41
2021/12/26 00:24:01;;;;;;;;;2.67;2.67;;;;;-2.04;99.56;99058.25;6311380;20;3460745;-43
2021/12/26 00:26:32;;;;;;;;;7.00;4.33;;;;;-1.96;99.02;99049.34;6312325;20;3450220;-44
2021/12/26 00:29:02;;;;;;;;;5.00;2.00;;;;;-2.06;99.19;99059.19;6311722;20;3466943;-46
2021/12/26 00:31:31;;;;;;;;;2.67;2.67;;;;;-2.23;99.42;99062.16;6314207;20;3464812;-43
2021/12/26 00:33:59;;;;;;;;;5.67;4.33;;;;;-1.80;100.00;99053.38;6317935;20;3459608;-45
2021/12/26 00:36:26;;;;;;;;;5.00;4.00;;;;;-2.01;99.04;99052.91;6315339;20;3454434;-44
2021/12/26 00:38:54;;;;;;;;;5.00;2.00;;;;;-2.02;99.06;99053.84;6319665;20;3462916;-44
2021/12/26 00:41:23;;;;;;;;;11.00;3.50;;;;;-1.67;99.84;99062.72;6333056;20;1823176;-43
2021/12/26 00:43:52;;;;;;;;;4.50;4.50;;;;;-1.44;99.80;99062.22;6319928;20;2740932;-43
2021/12/26 00:46:21;;;;;;;;;7.67;4.67;;;;;-1.95;98.54;99058.94;6313707;20;3465855;-44
2021/12/26 00:48:49;;;;;;;;;11.00;5.00;;;;;-1.96;98.20;99054.59;6317935;20;2767983;-44
2021/12/26 00:51:18;;;;;;;;;4.50;4.00;;;;;-2.07;98.58;99067.97;6285321;20;2470048;-43
2021/12/26 00:53:46;;;;;;;;;5.67;5.67;;;;;-2.26;99.23;99072.75;6315980;20;3445576;-44
2021/12/26 00:56:15;;;;;;;;;4.33;3.33;;;;;-2.08;98.92;99069.75;6314364;20;3462190;-43
2021/12/26 00:58:43;;;;;;;;;8.00;5.67;;;;;-2.07;99.29;99074.09;6317121;20;3471171;-43
2021/12/26 01:01:12;;;;;;;;;7.00;5.00;;;;;-1.91;99.25;99073.78;6314880;20;3455447;-43
2021/12/26 01:03:41;;;;;;;;;4.00;2.00;;;;;-2.14;99.08;99075.09;6317829;20;2746209;-43
2021/12/26 01:06:10;;;;;;;;;4.00;2.00;;;;;-1.84;99.44;99073.63;6313838;20;3467968;-44
2021/12/26 01:08:41;;;;;;;;;2.00;2.00;;;;;-1.88;98.87;99076.34;6317393;20;3457689;-44
2021/12/26 01:11:47;;;;;;;;;1.50;1.50;;;;;-1.98;98.96;99073.03;6333607;20;1823391;-43
2021/12/26 01:14:15;;;;;;;;;4.00;4.00;;;;;-1.85;99.19;99068.38;6315069;20;3462760;-43
2021/12/26 01:16:47;;;;;;;;;1.67;1.67;;;;;-2.19;99.14;99071.72;6315992;20;3445044;-43
2021/12/26 01:19:18;;;;;;;;;4.00;4.00;;;;;-1.83;99.96;99071.84;6316422;20;3472116;-43
2021/12/26 01:21:46;;;;;;;;;1.00;1.00;;;;;-1.93;98.96;99062.41;6317998;20;3446129;-44
2021/12/26 01:24:15;;;;;;;;;6.33;1.67;;;;;-1.74;99.49;99070.78;6317429;20;3455444;-43
2021/12/26 01:26:44;;;;;;;;;5.00;1.33;;;;;-1.81;99.67;99059.53;6312300;20;3460659;-43
2021/12/26 01:29:11;;;;;;;;;4.33;4.33;;;;;-1.40;99.32;99055.94;6316928;20;3452292;-44
2021/12/26 01:31:39;;;;;;;;;2.00;2.00;;;;;-2.04;98.24;99062.66;6313048;20;3437774;-43
2021/12/26 01:34:08;;;;;;;;;7.00;5.00;;;;;-1.77;99.06;99055.94;6313807;20;3469002;-44
2021/12/26 01:36:36;;;;;;;;;4.00;4.00;;;;;-2.01;98.15;99055.56;6284647;20;3472187;-43
2021/12/26 01:39:08;;;;;;;;;5.00;2.67;;;;;-1.88;98.40;99052.66;6317132;20;3465068;-44
2021/12/26 01:41:40;;;;;;;;;4.00;4.00;;;;;-1.79;97.61;99049.81;6311797;20;3459724;-43
2021/12/26 01:44:12;;;;;;;;;4.67;2.00;;;;;-1.93;97.19;99051.91;6314526;20;3470058;-45
2021/12/26 01:46:41;;;;;;;;;2.00;2.00;;;;;-1.78;97.59;99052.44;6281281;20;3470119;-44
2021/12/26 01:49:19;;;;;;;;;7.00;2.00;;;;;-1.87;97.17;99049.13;6315267;20;3472117;-43
2021/12/26 01:51:52;;;;;;;;;5.00;2.67;;;;;-1.92;97.92;99056.25;6283488;20;3470163;-44
2021/12/26 01:54:33;;;;;;;;;4.50;4.50;;;;;-1.84;97.92;99056.97;6302531;20;1825345;-44
2021/12/26 01:57:04;;;;;;;;;5.00;5.00;;;;;-1.83;97.64;99053.44;6314824;20;3465878;-44
2021/12/26 01:59:32;;;;;;;;;4.67;3.33;;;;;-1.96;97.77;99062.50;6312404;20;3465829;-45
2021/12/26 02:02:02;;;;;;;;;10.75;7.25;;;;;-1.62;97.39;99055.59;6300491;20;1829536;-45
2021/12/26 02:04:30;;;;;;;;;2.00;2.00;;;;;-1.96;96.93;99054.59;6315812;20;3454395;-43
2021/12/26 02:07:01;;;;;;;;;6.00;5.00;;;;;-1.72;98.35;99054.06;6310712;20;3455487;-44
2021/12/26 02:09:30;;;;;;;;;5.00;5.00;;;;;-1.39;98.72;99049.81;6316572;20;3457605;-43
2021/12/26 02:11:58;;;;;;;;;7.33;1.67;;;;;-1.79;97.84;99047.19;6316006;20;3464842;-46
2021/12/26 02:14:26;;;;;;;;;4.33;2.67;;;;;-1.71;97.62;99041.75;6314196;20;3470082;-44
2021/12/26 02:16:57;;;;;;;;;5.00;4.67;;;;;-1.68;97.24;99050.47;6353832;20;1814939;-44
2021/12/26 02:19:26;;;;;;;;;10.25;7.25;;;;;-1.46;97.75;99045.56;6302883;20;1819192;-43
2021/12/26 02:22:10;;;;;;;;;12.00;7.00;;;;;-1.77;96.46;99045.41;6312694;20;2767952;-46
2021/12/26 02:27:31;;;;;;;;;9.67;4.67;;;;;-1.51;96.14;99062.38;6282148;20;3472111;-43
2021/12/26 02:30:10;;;;;;;;;23.50;21.00;;;;;-1.24;95.00;99061.72;6312500;20;2833690;-42
2021/12/26 02:32:39;;;;;;;;;7.00;4.67;;;;;-1.65;96.07;99055.66;6281050;20;3470098;-44
2021/12/26 02:35:10;;;;;;;;;11.00;9.83;;;;;-1.20;95.64;99063.41;6354496;20;1815918;-43
2021/12/26 02:37:37;;;;;;;;;11.00;6.33;;;;;-1.80;96.64;99058.63;6284709;20;3484637;-44
2021/12/26 02:40:08;;;;;;;;;9.00;7.50;;;;;-1.61;96.82;99057.31;6301063;20;1823194;-45
2021/12/26 02:42:37;;;;;;;;;22.67;16.33;;;;;-1.20;96.55;99050.22;6314720;20;3557554;-44
2021/12/26 02:45:06;;;;;;;;;18.00;12.25;;;;;-1.65;97.40;99055.66;6327065;20;1836774;-43
2021/12/26 02:47:46;;;;;;;;;4.33;4.33;;;;;-1.91;98.48;99053.59;6310961;20;3459749;-46
2021/12/26 02:50:30;;;;;;;;;21.00;20.33;;;;;-1.40;98.25;99055.09;6313273;20;3553371;-44
2021/12/26 02:53:03;;;;;;;;;4.00;2.00;;;;;-1.65;97.28;99047.78;6314026;20;3450253;-44
2021/12/26 02:55:33;;;;;;;;;7.00;4.00;;;;;-1.75;99.39;99046.25;6330088;20;1824311;-48
2021/12/26 02:58:09;;;;;;;;;4.00;4.00;;;;;-1.63;100.00;99053.88;6314706;20;3451286;-44
2021/12/26 03:00:54;;;;;;;;;4.67;4.67;;;;;-1.64;98.94;99049.50;6313036;20;3463896;-43
2021/12/26 03:03:22;;;;;;;;;5.00;4.00;;;;;-1.32;97.80;99058.41;6312171;20;3467326;-44
2021/12/26 03:06:08;;;;;;;;;7.67;4.00;;;;;-1.47;100.00;99054.38;6281209;20;3466901;-44
2021/12/26 03:08:36;;;;;;;;;5.00;2.00;;;;;-1.09;98.38;99043.84;6312315;20;3462749;-44
2021/12/26 03:11:05;;;;;;;;;7.25;4.75;;;;;-0.94;97.92;99046.94;6331779;20;1829524;-45
2021/12/26 03:13:33;;;;;;;;;7.00;5.00;;;;;-1.14;98.60;99055.34;6310252;20;3463785;-47
2021/12/26 03:16:02;;;;;;;;;11.50;5.25;;;;;-1.08;99.29;99051.69;6324341;20;1825494;-44
2021/12/26 03:18:30;;;;;;;;;9.33;6.67;;;;;-1.03;98.93;99054.22;6309294;20;3478426;-44
2021/12/26 03:20:57;;;;;;;;;12.00;8.00;;;;;-1.50;100.00;99053.56;6307186;20;2768033;-46
2021/12/26 03:23:28;;;;;;;;;6.50;6.50;;;;;-1.34;100.00;99053.19;6293299;20;1823293;-45
2021/12/26 03:26:04;;;;;;;;;7.00;7.00;;;;;-1.91;100.00;99050.97;6309379;20;3467027;-44
2021/12/26 03:28:33;;;;;;;;;10.50;6.50;;;;;-1.25;100.00;99053.88;6298867;20;1833721;-43
2021/12/26 03:31:01;;;;;;;;;17.33;9.00;;;;;-1.34;100.00;99062.88;6310636;20;3499338;-44
2021/12/26 03:33:31;;;;;;;;;9.00;7.00;;;;;-1.25;100.00;99064.41;6299636;20;1829438;-46
2021/12/26 03:35:59;;;;;;;;;7.00;5.00;;;;;-1.21;100.00;99066.94;6314755;20;3457559;-45
2021/12/26 03:38:29;;;;;;;;;9.00;6.00;;;;;-1.05;100.00;99062.16;6330936;20;1827257;-44
2021/12/26 03:40:57;;;;;;;;;11.75;7.50;;;;;-1.01;100.00;99073.47;6329761;20;1823778;-43
2021/12/26 03:43:27;;;;;;;;;9.50;5.00;;;;;-1.05;100.00;99061.28;6332712;20;1824319;-43
2021/12/26 03:45:56;;;;;;;;;5.33;5.33;;;;;-1.26;99.85;99066.19;6312574;20;3457517;-43
2021/12/26 03:48:26;;;;;;;;;5.67;5.67;;;;;-1.05;100.00;99064.81;6311242;20;3460846;-46
2021/12/26 03:50:58;;;;;;;;;5.50;5.50;;;;;-0.85;98.94;99061.66;6329092;20;1821166;-43
2021/12/26 03:53:26;;;;;;;;;8.00;8.00;;;;;-1.45;100.00;99062.22;6314730;20;2735661;-44
2021/12/26 03:55:54;;;;;;;;;11.50;5.00;;;;;-1.30;100.00;99066.28;6312549;20;2768004;-43
2021/12/26 03:58:22;;;;;;;;;10.25;7.00;;;;;-1.14;100.00;99057.09;6296286;20;1830706;-44
2021/12/26 04:00:53;;;;;;;;;7.25;6.50;;;;;-1.02;100.00;99048.06;6328976;20;1827370;-44
2021/12/26 04:03:23;;;;;;;;;8.00;7.00;;;;;-1.24;100.00;99047.69;6329007;20;1820227;-43
2021/12/26 04:05:52;;;;;;;;;9.50;7.00;;;;;-1.19;100.00;99051.94;6334782;20;1833750;-45
2021/12/26 04:08:20;;;;;;;;;7.00;6.00;;;;;-1.04;100.00;99055.13;6317197;20;3468090;-44
2021/12/26 04:10:48;;;;;;;;;8.00;4.00;;;;;-1.16;100.00;99051.91;6286581;20;3466930;-45
2021/12/26 04:13:16;;;;;;;;;15.00;8.50;;;;;-1.14;100.00;99050.06;6317353;20;2762738;-45
2021/12/26 04:15:45;;;;;;;;;6.50;6.50;;;;;-1.10;99.91;99056.16;6334516;20;1825275;-44
2021/12/26 04:18:14;;;;;;;;;8.50;8.50;;;;;-1.08;100.00;99045.56;6316211;20;2736702;-45
2021/12/26 04:20:43;;;;;;;;;15.50;9.75;;;;;-1.03;99.92;99038.41;6334406;20;1835784;-43
2021/12/26 04:23:14;;;;;;;;;8.50;7.25;;;;;-1.19;100.00;99043.19;6334977;20;1811327;-43
2021/12/26 04:25:43;;;;;;;;;12.00;7.25;;;;;-1.08;100.00;99040.28;6333653;20;1827988;-43
2021/12/26 04:28:12;;;;;;;;;11.00;8.25;;;;;-1.04;100.00;99039.31;6333267;20;1811744;-43
2021/12/26 04:30:40;;;;;;;;;10.00;9.00;;;;;-1.12;100.00;99036.88;6315323;20;2763861;-44
2021/12/26 04:33:08;;;;;;;;;10.33;4.67;;;;;-1.00;100.00;99046.22;6284307;20;3485689;-44
2021/12/26 04:35:36;;;;;;;;;10.00;10.00;;;;;-1.17;100.00;99042.25;6284828;20;2769088;-43
2021/12/26 04:38:04;;;;;;;;;11.50;7.50;;;;;-1.05;100.00;99051.63;6284886;20;2768124;-43
2021/12/26 04:40:32;;;;;;;;;12.00;9.00;;;;;-1.04;100.00;99052.50;6285255;20;2752541;-44
2021/12/26 04:43:00;;;;;;;;;13.00;8.00;;;;;-0.80;100.00;99059.75;6313877;20;2753613;-43
2021/12/26 04:45:28;;;;;;;;;12.00;9.00;;;;;-0.70;100.00;99065.69;6284565;20;2765915;-43
2021/12/26 04:48:00;;;;;;;;;14.50;12.00;;;;;-0.82;100.00;99060.72;6283583;20;2779531;-44
2021/12/26 04:50:29;;;;;;;;;15.00;8.00;;;;;-1.03;100.00;99064.75;6285952;20;2756605;-43
2021/12/26 04:52:57;;;;;;;;;12.00;7.50;;;;;-0.70;100.00;99074.44;6314748;20;2771089;-43
2021/12/26 04:55:30;;;;;;;;;10.50;8.25;;;;;-1.02;100.00;99071.75;6306839;20;1822276;-43
2021/12/26 04:57:59;;;;;;;;;11.50;8.25;;;;;-1.09;100.00;99078.06;6335409;20;1813741;-44
2021/12/26 05:00:31;;;;;;;;;14.75;11.00;;;;;-0.77;100.00;99078.13;6330810;20;1833705;-43
2021/12/26 05:03:04;;;;;;;;;10.25;9.00;;;;;-1.00;100.00;99083.09;6332830;20;1826171;-43
2021/12/26 05:05:34;;;;;;;;;12.00;8.50;;;;;-0.93;100.00;99087.34;6313186;20;2757560;-46
2021/12/26 05:08:04;;;;;;;;;11.00;8.50;;;;;-1.01;100.00;99079.63;6283602;20;2766909;-46
2021/12/26 05:10:32;;;;;;;;;12.00;8.00;;;;;-0.89;100.00;99086.38;6286840;20;3451425;-44
2021/12/26 05:13:03;;;;;;;;;11.00;10.00;;;;;-1.01;100.00;99091.94;6311827;20;2778545;-44
2021/12/26 05:15:33;;;;;;;;;15.25;12.50;;;;;-0.84;100.00;99084.47;6298370;20;1834728;-44
2021/12/26 05:18:01;;;;;;;;;10.00;4.33;;;;;-0.62;99.83;99089.19;6311750;20;3495051;-43
2021/12/26 05:20:30;;;;;;;;;9.00;7.00;;;;;-0.80;98.79;99093.16;6282999;20;2755571;-44
2021/12/26 05:23:01;;;;;;;;;14.17;10.17;;;;;-1.00;98.43;99104.19;6322611;20;1806618;-43
2021/12/26 05:25:29;;;;;;;;;10.00;10.00;;;;;-0.98;98.54;99105.03;6284975;20;2777401;-44
2021/12/26 05:27:57;;;;;;;;;10.00;6.00;;;;;-0.65;97.02;99102.47;6283555;20;2764867;-44
2021/12/26 05:30:28;;;;;;;;;13.50;8.50;;;;;-0.76;97.09;99103.59;6332002;20;1827462;-44
2021/12/26 05:32:56;;;;;;;;;5.00;5.00;;;;;-0.82;96.88;99103.72;6314564;20;2738788;-48
2021/12/26 05:35:24;;;;;;;;;8.00;8.00;;;;;-1.06;96.85;99112.25;6321526;20;3351253;-44
2021/12/26 05:37:52;;;;;;;;;5.00;5.00;;;;;-0.67;96.02;99113.03;6316773;20;3451267;-44
2021/12/26 05:40:21;;;;;;;;;10.00;7.25;;;;;-1.00;94.88;99107.72;6332238;20;1818088;-44
2021/12/26 05:42:49;;;;;;;;;5.25;4.50;;;;;-0.90;95.37;99109.19;6335749;20;1825386;-45
2021/12/26 05:45:17;;;;;;;;;7.50;5.00;;;;;-0.98;94.34;99110.28;6317348;20;2746284;-44
2021/12/26 05:47:46;;;;;;;;;3.00;3.00;;;;;-0.98;92.89;99116.41;6332839;20;1825266;-43
2021/12/26 05:50:19;;;;;;;;;4.50;4.50;;;;;-1.11;91.42;99117.63;6331168;20;1825469;-44
2021/12/26 05:52:49;;;;;;;;;4.00;4.00;;;;;-1.03;91.05;99125.34;6333270;20;1825282;-44
2021/12/26 05:55:18;;;;;;;;;5.00;5.00;;;;;-1.04;91.35;99128.88;6315394;20;3459602;-43
2021/12/26 05:57:47;;;;;;;;;8.00;7.33;;;;;-0.80;90.19;99135.34;6316501;20;3472125;-43
2021/12/26 06:00:20;;;;;;;;;18.67;18.67;;;;;-0.77;89.37;99135.25;6312386;20;3546191;-45
2021/12/26 06:02:50;;;;;;;;;97.33;75.33;;;;;-1.01;89.21;99136.72;6314287;20;3637762;-43
2021/12/26 06:05:21;;;;;;;;;65.00;51.00;;;;;-0.96;89.32;99143.59;6313086;20;2500431;-44
2021/12/26 06:07:50;;;;;;;;;13.25;10.25;;;;;-0.89;87.31;99142.56;6298388;20;1833694;-44
2021/12/26 06:10:19;;;;;;;;;25.00;19.33;;;;;-0.86;88.08;99135.50;6315404;20;3570053;-46
2021/12/26 06:12:47;;;;;;;;;11.50;8.00;;;;;-1.02;87.47;99140.25;6314444;20;2769109;-44
2021/12/26 06:15:15;;;;;;;;;32.67;21.00;;;;;-1.04;88.80;99145.56;6284275;20;3590835;-44
2021/12/26 06:17:44;;;;;;;;;56.00;45.00;;;;;-0.89;87.16;99153.09;6280326;20;2856595;-45
2021/12/26 06:20:14;;;;;;;;;83.00;60.33;;;;;-1.07;87.96;99147.41;6281541;20;2883682;-43
2021/12/26 06:22:46;;;;;;;;;64.00;45.00;;;;;-1.02;87.16;99151.66;6314075;20;2862756;-44
2021/12/26 06:25:16;;;;;;;;;41.50;33.00;;;;;-0.80;86.18;99151.16;6282784;20;2858577;-43
2021/12/26 06:27:44;;;;;;;;;40.50;36.00;;;;;-0.92;86.88;99149.69;6275664;20;2500260;-45
2021/12/26 06:30:14;;;;;;;;;60.50;49.00;;;;;-0.91;85.93;99156.69;6277221;20;2494063;-43
2021/12/26 06:32:44;;;;;;;;;76.67;57.67;;;;;-1.00;85.77;99165.66;6282924;20;2876286;-43
2021/12/26 06:35:14;;;;;;;;;61.00;42.00;;;;;-1.07;84.77;99163.22;6311461;20;3629409;-45
2021/12/26 06:37:42;;;;;;;;;69.00;53.50;;;;;-0.94;85.32;99172.56;6313130;20;2867948;-43
2021/12/26 06:40:13;;;;;;;;;73.50;56.50;;;;;-1.02;85.42;99174.50;6281180;20;2867964;-43
2021/12/26 06:42:44;;;;;;;;;75.00;55.50;;;;;-1.07;85.16;99173.75;6283360;20;2871093;-44
2021/12/26 06:45:18;;;;;;;;;56.00;46.50;;;;;-1.18;86.20;99182.75;6281792;20;2870030;-47
2021/12/26 06:47:51;;;;;;;;;33.50;27.00;;;;;-0.76;83.72;99187.94;6278854;20;2854558;-44
2021/12/26 06:50:21;;;;;;;;;42.50;37.00;;;;;-0.80;83.55;99188.91;6278558;20;2500307;-44
2021/12/26 06:52:49;;;;;;;;;29.00;22.00;;;;;-0.95;84.08;99190.16;6281736;20;2833633;-43
2021/12/26 06:55:17;;;;;;;;;19.50;9.00;;;;;-0.82;83.32;99195.97;6279643;20;2788785;-43
2021/12/26 06:57:46;;;;;;;;;67.50;49.00;;;;;-0.76;83.39;99200.25;6280793;20;2870026;-45
2021/12/26 07:00:17;;;;;;;;;57.50;47.00;;;;;-1.01;84.20;99205.22;6281341;20;2847224;-43
2021/12/26 07:02:46;;;;;;;;;21.67;17.00;;;;;-0.90;83.51;99203.19;6283414;20;3558572;-43
2021/12/26 07:05:15;;;;;;;;;23.33;18.67;;;;;-0.94;83.73;99212.09;6312367;20;3566909;-43
2021/12/26 07:07:44;;;;;;;;;42.00;33.50;;;;;-0.83;83.23;99209.19;6280558;20;2855460;-44
2021/12/26 07:10:14;;;;;;;;;27.67;17.00;;;;;-0.81;83.64;99218.81;6282021;20;3576846;-44
2021/12/26 07:12:44;;;;;;;;;28.00;24.00;;;;;-0.61;81.24;99223.59;6314563;20;2841993;-44
2021/12/26 07:15:14;;;;;;;;;31.67;26.67;;;;;-0.79;80.75;99222.28;6279571;20;3573180;-43
2021/12/26 07:17:43;;;;;;;;;14.00;14.00;;;;;-1.02;81.13;99224.56;6280425;20;2795054;-43
2021/12/26 07:20:14;;;;;;;;;24.67;17.33;;;;;-0.96;82.35;99217.38;6281990;20;3577391;-43
2021/12/26 07:22:45;;;;;;;;;30.50;30.00;;;;;-0.80;81.30;99220.53;6312546;20;2844033;-43
2021/12/26 07:25:16;;;;;;;;;21.67;17.67;;;;;-0.83;80.91;99225.00;6280977;20;3558621;-43
2021/12/26 07:27:44;;;;;;;;;15.00;8.00;;;;;-0.78;79.82;99218.72;6313607;20;2764830;-43
2021/12/26 07:30:12;;;;;;;;;9.00;9.00;;;;;-0.88;80.67;99217.22;6279141;20;2748219;-44
2021/12/26 07:32:41;;;;;;;;;28.33;21.33;;;;;-0.88;79.79;99218.06;6280909;20;3573247;-45
2021/12/26 07:35:10;;;;;;;;;32.33;22.33;;;;;-0.83;79.72;99222.38;6310734;20;3578412;-44
2021/12/26 07:37:38;;;;;;;;;11.00;7.00;;;;;-0.69;78.38;99213.22;6285064;20;2653427;-45
2021/12/26 07:40:08;;;;;;;;;15.00;10.50;;;;;-0.88;76.97;99218.06;6305652;20;2794005;-44
2021/12/26 07:42:36;;;;;;;;;19.00;11.00;;;;;-0.49;76.92;99222.44;6281315;20;2796212;-43
2021/12/26 07:45:05;;;;;;;;;8.75;5.50;;;;;-0.82;75.56;99219.69;6300228;20;1826457;-43
2021/12/26 07:47:33;;;;;;;;;7.00;6.00;;;;;-0.61;76.73;99226.22;6331855;20;1824755;-46
2021/12/26 07:50:02;;;;;;;;;1.00;1.00;;;;;-1.03;77.81;99223.66;6311458;20;3442987;-44
2021/12/26 07:52:34;;;;;;;;;6.00;6.00;;;;;-0.56;77.52;99220.84;6314836;20;2752361;-44
2021/12/26 07:55:03;;;;;;;;;14.00;7.00;;;;;-0.65;77.03;99210.53;6313358;20;2758650;-43
2021/12/26 07:57:31;;;;;;;;;4.00;4.00;;;;;-1.11;76.72;99220.34;6313552;20;3455892;-43
2021/12/26 08:00:01;;;;;;;;;8.00;8.00;;;;;-0.98;76.72;99213.03;6339489;20;2733610;-44
2021/12/26 08:02:30;;;;;;;;;43.00;36.00;;;;;-0.57;76.21;99217.34;6311819;20;2854448;-43
2021/12/26 08:04:59;;;;;;;;;25.00;18.00;;;;;-0.31;75.93;99224.63;6277062;20;3566913;-48
2021/12/26 08:07:27;;;;;;;;;11.00;5.00;;;;;-0.33;75.71;99222.94;6311651;20;2766953;-43
2021/12/26 08:09:55;;;;;;;;;10.00;7.67;;;;;-0.23;73.08;99216.53;6279600;20;3493301;-44
2021/12/26 08:12:24;;;;;;;;;13.00;11.50;;;;;-0.52;75.58;99230.44;6296875;20;1814878;-43
2021/12/26 08:14:51;;;;;;;;;36.00;26.00;;;;;-0.48;74.90;99229.44;6309360;20;2500324;-45
2021/12/26 08:17:20;;;;;;;;;13.25;8.00;;;;;-0.34;71.86;99230.00;6299531;20;1820140;-44
2021/12/26 08:19:49;;;;;;;;;10.67;10.67;;;;;-0.50;74.20;99233.88;6328499;20;1825390;-44
2021/12/26 08:22:17;;;;;;;;;23.67;17.67;;;;;-0.24;74.27;99233.25;6310947;20;3575218;-43
2021/12/26 08:24:46;;;;;;;;;14.67;14.67;;;;;-0.25;73.23;99232.38;6309090;20;3548132;-44
2021/12/26 08:27:14;;;;;;;;;11.00;10.50;;;;;-0.13;72.46;99227.69;6309758;20;2800351;-45
2021/12/26 08:29:43;;;;;;;;;38.33;28.33;;;;;-0.16;73.84;99228.63;6277270;20;3591912;-44
2021/12/26 08:32:14;;;;;;;;;18.00;11.00;;;;;-0.10;71.94;99230.28;6277700;20;2807670;-43
2021/12/26 08:34:43;;;;;;;;;8.67;7.33;;;;;-0.02;69.16;99230.94;6283036;20;3457557;-46
2021/12/26 08:37:13;;;;;;;;;7.00;5.00;;;;;0.20;69.11;99245.28;6311433;20;3465979;-45
2021/12/26 08:39:44;;;;;;;;;43.50;30.50;;;;;0.15;68.83;99239.25;6274680;20;2500292;-43
2021/12/26 08:42:15;;;;;;;;;63.00;38.33;;;;;0.04;68.85;99241.34;6280721;20;3649184;-44
2021/12/26 08:44:45;;;;;;;;;12.67;9.50;;;;;0.16;67.96;99246.28;6348964;20;1821028;-44
2021/12/26 08:47:13;;;;;;;;;22.00;8.00;;;;;0.06;68.35;99247.44;6277869;20;2789935;-44
2021/12/26 08:49:42;;;;;;;;;20.00;14.67;;;;;-0.23;68.86;99249.03;6279070;20;3524231;-44
2021/12/26 08:52:11;;;;;;;;;45.50;36.50;;;;;0.35;69.18;99245.81;6312559;20;2857572;-43
2021/12/26 08:54:40;;;;;;;;;17.00;13.00;;;;;0.52;68.00;99251.47;6280541;20;2787815;-44
2021/12/26 08:57:09;;;;;;;;;31.50;25.00;;;;;0.13;67.32;99256.06;6285752;20;2846068;-43
2021/12/26 08:59:40;;;;;;;;;44.50;34.50;;;;;0.49;67.07;99259.47;6284176;20;2877636;-45
2021/12/26 09:02:10;;;;;;;;;25.00;20.50;;;;;0.39;66.94;99263.28;6283054;20;2827357;-44
2021/12/26 09:04:40;;;;;;;;;12.00;10.00;;;;;0.50;66.19;99255.06;6284180;20;2784648;-46
2021/12/26 09:07:09;;;;;;;;;5.00;4.00;;;;;0.26;65.28;99259.25;6283304;20;3470127;-44
2021/12/26 09:09:38;;;;;;;;;17.33;14.33;;;;;0.53;66.28;99255.88;6280524;20;3549259;-43
2021/12/26 09:12:08;;;;;;;;;8.00;4.00;;;;;0.62;65.68;99255.59;6314247;20;3455433;-44
2021/12/26 09:14:37;;;;;;;;;32.00;26.00;;;;;0.50;66.24;99255.94;6314458;20;3592930;-44
2021/12/26 09:17:08;;;;;;;;;13.20;11.20;;;;;0.59;65.80;99245.13;6337478;20;2776313;-45
2021/12/26 09:19:37;;;;;;;;;15.75;8.00;;;;;0.91;64.51;99243.31;6301681;20;1825359;-45
2021/12/26 09:22:10;;;;;;;;;8.00;8.00;;;;;0.99;64.32;99237.81;6315333;20;3463803;-45
2021/12/26 09:24:38;;;;;;;;;14.50;12.00;;;;;1.08;63.79;99229.63;6284380;20;2791906;-43
2021/12/26 09:27:06;;;;;;;;;13.00;11.50;;;;;0.72;66.02;99226.28;6284807;20;2770191;-44
2021/12/26 09:29:35;;;;;;;;;18.33;15.33;;;;;0.98;65.11;99220.22;6282066;20;3548153;-44
2021/12/26 09:32:04;;;;;;;;;15.50;11.50;;;;;1.16;63.20;99224.97;6314946;20;2788961;-43
2021/12/26 09:34:35;;;;;;;;;12.00;9.00;;;;;0.15;65.91;99212.88;6282595;20;2763850;-43
2021/12/26 09:37:08;;;;;;;;;14.33;11.67;;;;;0.00;64.38;99200.13;6282521;20;3491922;-43
2021/12/26 09:39:39;;;;;;;;;42.00;39.00;;;;;0.72;65.21;99199.88;6313210;20;2869004;-44
2021/12/26 09:42:08;;;;;;;;;25.00;16.00;;;;;0.57;63.74;99193.25;6285399;20;2841271;-44
2021/12/26 09:44:36;;;;;;;;;10.00;8.00;;;;;-0.17;65.77;99194.41;6286615;20;2755452;-45
2021/12/26 09:47:05;;;;;;;;;19.00;10.50;;;;;0.31;65.21;99186.91;6314875;20;2797252;-44
2021/12/26 09:49:34;;;;;;;;;25.33;18.33;;;;;0.28;65.29;99186.16;6282769;20;3573152;-44
2021/12/26 09:52:04;;;;;;;;;15.50;8.50;;;;;0.81;63.86;99195.16;6315729;20;2774234;-43
2021/12/26 09:54:34;;;;;;;;;21.80;13.40;;;;;0.76;63.93;99204.13;6304993;20;2809636;-45
2021/12/26 09:57:03;;;;;;;;;14.00;8.33;;;;;0.65;64.93;99194.75;6284776;20;3480497;-45
2021/12/26 09:59:31;;;;;;;;;7.00;7.00;;;;;0.21;66.08;99201.28;6284467;20;2738822;-44
2021/12/26 10:02:11;;;;;;;;;14.00;9.50;;;;;0.59;66.14;99205.50;6312585;20;2777389;-46
2021/12/26 10:04:51;;;;;;;;;17.33;12.67;;;;;0.06;66.42;99197.28;6280896;20;3536746;-43
2021/12/26 10:07:25;;;;;;;;;16.00;12.00;;;;;0.39;67.65;99202.53;6279448;20;2796139;-44
2021/12/26 10:09:55;;;;;;;;;11.50;11.00;;;;;0.73;65.45;99196.28;6284986;20;2775251;-43
2021/12/26 10:12:23;;;;;;;;;7.33;7.33;;;;;0.68;64.36;99203.50;6284154;20;3458619;-43
2021/12/26 10:14:54;;;;;;;;;9.00;7.00;;;;;0.72;64.36;99197.22;6314167;20;2747165;-44
2021/12/26 10:17:26;;;;;;;;;5.00;5.00;;;;;0.83;64.04;99200.41;6316551;20;2750283;-44
2021/12/26 10:20:11;;;;;;;;;13.75;6.50;;;;;0.77;63.79;99196.16;6330295;20;1830600;-44
2021/12/26 10:22:39;;;;;;;;;9.33;5.00;;;;;0.88;63.79;99198.50;6315431;20;3480535;-44
2021/12/26 10:25:14;;;;;;;;;39.50;31.00;;;;;0.67;64.54;99188.56;6282500;20;2855468;-46
2021/12/26 10:27:45;;;;;;;;;11.25;8.50;;;;;0.99;64.31;99188.44;6301335;20;1818059;-44
2021/12/26 10:30:17;;;;;;;;;22.00;17.00;;;;;0.92;63.89;99186.03;6312682;20;2829569;-44
2021/12/26 10:32:47;;;;;;;;;22.67;20.33;;;;;0.97;64.74;99181.47;6283257;20;2824333;-43
2021/12/26 10:35:18;;;;;;;;;8.75;8.75;;;;;0.92;65.32;99192.19;6333021;20;1823010;-43
2021/12/26 10:37:52;;;;;;;;;26.00;18.00;;;;;0.55;67.02;99188.00;6315202;20;2827380;-44
2021/12/26 10:40:28;;;;;;;;;17.80;12.40;;;;;0.59;66.54;99189.66;6306785;20;2794116;-43
2021/12/26 10:43:00;;;;;;;;;39.50;29.50;;;;;1.02;63.93;99185.69;6283211;20;2865863;-43
2021/12/26 10:45:35;;;;;;;;;14.50;10.50;;;;;0.97;62.53;99181.47;6282119;20;2794027;-44
2021/12/26 10:48:09;;;;;;;;;32.00;24.50;;;;;1.10;62.78;99193.41;6283486;20;2858619;-44
2021/12/26 10:50:40;;;;;;;;;13.00;11.00;;;;;0.78;63.98;99186.47;6280732;20;2775237;-43
2021/12/26 10:53:14;;;;;;;;;21.50;16.50;;;;;0.75;65.88;99186.56;6284074;20;2820031;-44
2021/12/26 10:55:51;;;;;;;;;27.67;22.33;;;;;0.72;66.74;99191.94;6283723;20;3565880;-45
2021/12/26 10:58:23;;;;;;;;;18.50;17.00;;;;;0.74;65.64;99185.69;6281815;20;2824238;-44
2021/12/26 11:00:58;;;;;;;;;20.33;18.33;;;;;0.92;64.65;99194.81;6280995;20;3564838;-45
2021/12/26 11:03:30;;;;;;;;;11.00;11.00;;;;;1.00;62.77;99187.56;6277038;20;2798219;-45
2021/12/26 11:06:06;;;;;;;;;14.00;11.00;;;;;0.88;62.05;99191.41;6282012;20;2792010;-44
2021/12/26 11:08:44;;;;;;;;;40.00;36.00;;;;;0.74;62.86;99185.69;6280450;20;2839843;-45
2021/12/26 11:11:23;;;;;;;;;18.50;14.00;;;;;1.03;61.48;99182.16;6280834;20;2804626;-43
2021/12/26 11:14:03;;;;;;;;;14.67;12.00;;;;;1.01;61.36;99186.63;6281409;20;2790050;-43
2021/12/26 11:16:39;;;;;;;;;18.00;16.67;;;;;1.12;62.78;99186.28;6308376;20;2821237;-43
2021/12/26 11:19:09;;;;;;;;;14.80;14.80;;;;;1.27;62.35;99184.97;6337052;20;2810834;-44
2021/12/26 11:21:37;;;;;;;;;34.50;29.00;;;;;1.04;61.73;99183.88;6276325;20;2508574;-45
2021/12/26 11:24:06;;;;;;;;;23.00;23.00;;;;;1.07;60.94;99181.16;6279937;20;3572236;-44
2021/12/26 11:26:35;;;;;;;;;62.00;50.00;;;;;1.14;61.74;99178.31;6276382;20;2500275;-43